ホーチミン の空港の天気 - METARとTAF

タンソンニャット国際空港 (ホーチミン) ( VVTS / SGN ) - ベトナム ホーチミン市
飛行場実況気象(Metar)
観測時間07/29 09:00 ICT (07/29 02:00 UTC)
風向・風速西 4m/s
視程10km以上
天気現象
少しの雲 雲底高度 460m
全天の4割程度の雲 雲底高度 1520m
気温30℃
湿度84%
気圧1008hPa
METARVVTS 290200Z 27008KT 240V300 9999 FEW015 SCT050 30/27 Q1008 NOSIG
過去の天気等 Google飛行場航空写真 Wunderground天気予報

過去48時間のMETAR

飛行場予報(TAF)
発表時間: 7/29 06:00 ICT (7/28 23:00 UTC)
予報対象時間: 29日7時 ICT ~ 30日13時 ICT
風向・風速西南西 5m/s
視程10km以上
全天の4割程度の雲 雲底高度 460m
全天の8割程度の雲 雲底高度 1520m
29日9時 ICT ~ 29日13時 ICT に一時的に
視程5000m
天気現象
29日13時 ICT ~ 29日19時 ICT に一時的に
風向・風速西南西 8m/s 瞬間風速 13m/s
視程5000m
天気現象雷雨
全天の4割程度の雲 雲底高度 460m
少しの積乱雲 雲底高度 520m
全天の8割程度の雲 雲底高度 1220m
TAF VVTS 282300Z 2900/3006 25010KT 9999 SCT015 BKN050
TEMPO 2902/2906 5000 RA
TEMPO 2906/2912 25015G26KT 5000 TSRA SCT015 FEW017CB BKN040